sensor_id;sensor_type;location;lat;lon;timestamp;pressure;altitude;pressure_sealevel;temperature;humidity
15050;BME280;7622;42.724;23.250;2022-10-28T00:01:35;95925.63;;;12.49;100.00
15050;BME280;7622;42.724;23.250;2022-10-28T00:04:02;95920.16;;;12.52;100.00
15050;BME280;7622;42.724;23.250;2022-10-28T00:06:31;95914.13;;;12.51;100.00
15050;BME280;7622;42.724;23.250;2022-10-28T00:09:00;95926.59;;;12.69;100.00
15050;BME280;7622;42.724;23.250;2022-10-28T00:11:28;95915.63;;;12.65;100.00
15050;BME280;7622;42.724;23.250;2022-10-28T00:13:57;95923.25;;;12.46;100.00
15050;BME280;7622;42.724;23.250;2022-10-28T00:16:26;95919.25;;;12.42;100.00
15050;BME280;7622;42.724;23.250;2022-10-28T00:18:53;95924.50;;;12.19;100.00
15050;BME280;7622;42.724;23.250;2022-10-28T00:21:22;95919.06;;;12.22;100.00
15050;BME280;7622;42.724;23.250;2022-10-28T00:23:49;95916.84;;;12.07;100.00
15050;BME280;7622;42.724;23.250;2022-10-28T00:26:19;95915.06;;;12.07;100.00
15050;BME280;7622;42.724;23.250;2022-10-28T00:28:48;95919.13;;;12.00;100.00
15050;BME280;7622;42.724;23.250;2022-10-28T00:31:16;95911.75;;;12.16;100.00
15050;BME280;7622;42.724;23.250;2022-10-28T00:33:44;95879.47;;;11.86;100.00
15050;BME280;7622;42.724;23.250;2022-10-28T00:36:14;95914.63;;;11.91;100.00
15050;BME280;7622;42.724;23.250;2022-10-28T00:38:43;95910.34;;;11.90;100.00
15050;BME280;7622;42.724;23.250;2022-10-28T00:41:11;95919.22;;;11.65;100.00
15050;BME280;7622;42.724;23.250;2022-10-28T00:43:41;95916.03;;;11.73;100.00
15050;BME280;7622;42.724;23.250;2022-10-28T00:46:25;95911.22;;;11.79;100.00
15050;BME280;7622;42.724;23.250;2022-10-28T00:48:59;95909.16;;;11.72;100.00
15050;BME280;7622;42.724;23.250;2022-10-28T00:51:28;95912.63;;;11.61;100.00
15050;BME280;7622;42.724;23.250;2022-10-28T00:53:57;95917.47;;;11.55;100.00
15050;BME280;7622;42.724;23.250;2022-10-28T00:56:26;95908.09;;;11.30;100.00
15050;BME280;7622;42.724;23.250;2022-10-28T00:58:57;95914.72;;;11.23;100.00
15050;BME280;7622;42.724;23.250;2022-10-28T01:01:25;95899.44;;;11.07;100.00
15050;BME280;7622;42.724;23.250;2022-10-28T01:03:52;95907.59;;;11.14;100.00
15050;BME280;7622;42.724;23.250;2022-10-28T01:06:20;95873.44;;;10.96;100.00
15050;BME280;7622;42.724;23.250;2022-10-28T01:08:47;95908.47;;;11.36;100.00
15050;BME280;7622;42.724;23.250;2022-10-28T01:11:35;95915.94;;;11.52;100.00
15050;BME280;7622;42.724;23.250;2022-10-28T01:14:17;95919.25;;;11.54;100.00
15050;BME280;7622;42.724;23.250;2022-10-28T01:17:05;95908.94;;;11.53;100.00
15050;BME280;7622;42.724;23.250;2022-10-28T01:19:54;95905.16;;;11.57;100.00
15050;BME280;7622;42.724;23.250;2022-10-28T01:22:29;95880.56;;;11.38;100.00
15050;BME280;7622;42.724;23.250;2022-10-28T01:25:24;95911.41;;;11.32;100.00
15050;BME280;7622;42.724;23.250;2022-10-28T01:28:08;95910.34;;;11.23;100.00
15050;BME280;7622;42.724;23.250;2022-10-28T01:33:34;95912.22;;;11.21;100.00
15050;BME280;7622;42.724;23.250;2022-10-28T01:36:10;95905.47;;;10.96;100.00
15050;BME280;7622;42.724;23.250;2022-10-28T01:38:45;95900.09;;;10.87;100.00
15050;BME280;7622;42.724;23.250;2022-10-28T01:41:17;95912.69;;;11.04;100.00
15050;BME280;7622;42.724;23.250;2022-10-28T01:43:55;95913.16;;;11.09;100.00
15050;BME280;7622;42.724;23.250;2022-10-28T01:46:27;95912.81;;;11.14;100.00
15050;BME280;7622;42.724;23.250;2022-10-28T01:48:58;95916.00;;;11.17;100.00
15050;BME280;7622;42.724;23.250;2022-10-28T01:51:30;95909.16;;;11.05;100.00
15050;BME280;7622;42.724;23.250;2022-10-28T01:54:02;95916.88;;;10.83;100.00
15050;BME280;7622;42.724;23.250;2022-10-28T01:56:33;95908.16;;;10.84;100.00
15050;BME280;7622;42.724;23.250;2022-10-28T01:59:04;95920.97;;;10.74;100.00
15050;BME280;7622;42.724;23.250;2022-10-28T02:01:32;95920.59;;;10.56;100.00
15050;BME280;7622;42.724;23.250;2022-10-28T02:04:01;95916.78;;;10.49;100.00
15050;BME280;7622;42.724;23.250;2022-10-28T02:06:29;95915.69;;;10.87;100.00
15050;BME280;7622;42.724;23.250;2022-10-28T02:09:05;95922.47;;;11.00;100.00
15050;BME280;7622;42.724;23.250;2022-10-28T02:14:37;95917.41;;;10.99;100.00
15050;BME280;7622;42.724;23.250;2022-10-28T02:17:11;95907.28;;;11.18;100.00
15050;BME280;7622;42.724;23.250;2022-10-28T02:19:49;95893.28;;;10.97;100.00
15050;BME280;7622;42.724;23.250;2022-10-28T02:22:20;95914.28;;;10.83;100.00
15050;BME280;7622;42.724;23.250;2022-10-28T02:24:54;95915.25;;;10.93;100.00
15050;BME280;7622;42.724;23.250;2022-10-28T02:27:31;95922.56;;;10.88;100.00
15050;BME280;7622;42.724;23.250;2022-10-28T02:30:04;95925.63;;;10.93;100.00
15050;BME280;7622;42.724;23.250;2022-10-28T02:32:36;95925.22;;;10.99;100.00
15050;BME280;7622;42.724;23.250;2022-10-28T02:35:08;95924.59;;;10.95;100.00
15050;BME280;7622;42.724;23.250;2022-10-28T02:37:37;95925.22;;;10.99;100.00
15050;BME280;7622;42.724;23.250;2022-10-28T02:40:11;95929.16;;;10.81;100.00
15050;BME280;7622;42.724;23.250;2022-10-28T02:42:42;95927.25;;;10.72;100.00
15050;BME280;7622;42.724;23.250;2022-10-28T02:45:15;95928.59;;;10.53;100.00
15050;BME280;7622;42.724;23.250;2022-10-28T02:47:47;95937.31;;;10.52;100.00
15050;BME280;7622;42.724;23.250;2022-10-28T02:50:21;95927.66;;;10.54;100.00
15050;BME280;7622;42.724;23.250;2022-10-28T02:52:54;95931.25;;;10.64;100.00
15050;BME280;7622;42.724;23.250;2022-10-28T02:55:24;95929.81;;;10.60;100.00
15050;BME280;7622;42.724;23.250;2022-10-28T02:57:56;95926.00;;;10.53;100.00
15050;BME280;7622;42.724;23.250;2022-10-28T03:00:23;95926.75;;;10.66;100.00
15050;BME280;7622;42.724;23.250;2022-10-28T03:02:50;95928.84;;;10.61;100.00
15050;BME280;7622;42.724;23.250;2022-10-28T03:05:18;95926.91;;;10.76;100.00
15050;BME280;7622;42.724;23.250;2022-10-28T03:07:45;95924.31;;;10.76;100.00
15050;BME280;7622;42.724;23.250;2022-10-28T03:10:12;95927.19;;;10.60;100.00
15050;BME280;7622;42.724;23.250;2022-10-28T03:12:38;95924.31;;;10.52;100.00
15050;BME280;7622;42.724;23.250;2022-10-28T03:15:06;95922.91;;;10.48;100.00
15050;BME280;7622;42.724;23.250;2022-10-28T03:17:33;95936.25;;;10.44;100.00
15050;BME280;7622;42.724;23.250;2022-10-28T03:20:00;95930.69;;;10.48;100.00
15050;BME280;7622;42.724;23.250;2022-10-28T03:22:28;95920.03;;;10.40;100.00
15050;BME280;7622;42.724;23.250;2022-10-28T03:24:55;95931.59;;;10.36;100.00
15050;BME280;7622;42.724;23.250;2022-10-28T03:27:21;95930.69;;;10.48;100.00
15050;BME280;7622;42.724;23.250;2022-10-28T03:29:48;95932.00;;;10.54;100.00
15050;BME280;7622;42.724;23.250;2022-10-28T03:32:15;95935.91;;;10.48;100.00
15050;BME280;7622;42.724;23.250;2022-10-28T03:34:41;95937.28;;;10.41;100.00
15050;BME280;7622;42.724;23.250;2022-10-28T03:37:08;95936.44;;;10.04;100.00
15050;BME280;7622;42.724;23.250;2022-10-28T03:39:36;95939.06;;;9.92;100.00
15050;BME280;7622;42.724;23.250;2022-10-28T03:42:03;95930.06;;;9.84;100.00
15050;BME280;7622;42.724;23.250;2022-10-28T03:44:30;95943.41;;;9.67;100.00
15050;BME280;7622;42.724;23.250;2022-10-28T03:46:57;95928.25;;;9.48;100.00
15050;BME280;7622;42.724;23.250;2022-10-28T03:49:23;95941.16;;;9.25;100.00
15050;BME280;7622;42.724;23.250;2022-10-28T03:51:50;95930.97;;;9.09;100.00
15050;BME280;7622;42.724;23.250;2022-10-28T03:54:17;95939.66;;;8.95;100.00
15050;BME280;7622;42.724;23.250;2022-10-28T03:56:45;95936.00;;;8.85;100.00
15050;BME280;7622;42.724;23.250;2022-10-28T03:59:12;95934.66;;;8.67;100.00
15050;BME280;7622;42.724;23.250;2022-10-28T04:01:38;95930.22;;;8.69;100.00
15050;BME280;7622;42.724;23.250;2022-10-28T04:04:05;95935.56;;;8.66;100.00
15050;BME280;7622;42.724;23.250;2022-10-28T04:06:32;95934.97;;;8.62;100.00
15050;BME280;7622;42.724;23.250;2022-10-28T04:08:59;95952.19;;;8.76;100.00
15050;BME280;7622;42.724;23.250;2022-10-28T04:11:26;95948.13;;;8.72;100.00
15050;BME280;7622;42.724;23.250;2022-10-28T04:13:54;95941.81;;;8.76;100.00
15050;BME280;7622;42.724;23.250;2022-10-28T04:16:20;95947.00;;;8.76;100.00
15050;BME280;7622;42.724;23.250;2022-10-28T04:18:47;95947.28;;;8.72;100.00
15050;BME280;7622;42.724;23.250;2022-10-28T04:21:14;95946.66;;;8.68;100.00
15050;BME280;7622;42.724;23.250;2022-10-28T04:23:41;95944.19;;;8.79;100.00
15050;BME280;7622;42.724;23.250;2022-10-28T04:26:07;95943.56;;;8.63;100.00
15050;BME280;7622;42.724;23.250;2022-10-28T04:28:34;95943.75;;;8.60;100.00
15050;BME280;7622;42.724;23.250;2022-10-28T04:31:02;95941.66;;;8.52;100.00
15050;BME280;7622;42.724;23.250;2022-10-28T04:33:29;95942.75;;;8.75;100.00
15050;BME280;7622;42.724;23.250;2022-10-28T04:35:56;95911.75;;;8.61;100.00
15050;BME280;7622;42.724;23.250;2022-10-28T04:38:23;95944.00;;;8.82;100.00
15050;BME280;7622;42.724;23.250;2022-10-28T04:40:49;95946.91;;;8.78;100.00
15050;BME280;7622;42.724;23.250;2022-10-28T04:43:16;95943.78;;;8.85;100.00
15050;BME280;7622;42.724;23.250;2022-10-28T04:45:44;95936.97;;;8.97;100.00
15050;BME280;7622;42.724;23.250;2022-10-28T04:48:13;95942.16;;;8.84;100.00
15050;BME280;7622;42.724;23.250;2022-10-28T04:50:39;95931.97;;;8.68;100.00
15050;BME280;7622;42.724;23.250;2022-10-28T04:53:06;95932.78;;;8.69;100.00
15050;BME280;7622;42.724;23.250;2022-10-28T04:55:33;95933.06;;;8.52;100.00
15050;BME280;7622;42.724;23.250;2022-10-28T04:58:00;95909.28;;;8.33;100.00
15050;BME280;7622;42.724;23.250;2022-10-28T05:00:27;95936.91;;;8.59;100.00
15050;BME280;7622;42.724;23.250;2022-10-28T05:02:55;95936.13;;;8.84;100.00
15050;BME280;7622;42.724;23.250;2022-10-28T05:05:23;95928.22;;;8.60;100.00
15050;BME280;7622;42.724;23.250;2022-10-28T05:07:50;95940.91;;;8.90;100.00
15050;BME280;7622;42.724;23.250;2022-10-28T05:10:16;95937.28;;;8.92;100.00
15050;BME280;7622;42.724;23.250;2022-10-28T05:12:43;95935.50;;;8.80;100.00
15050;BME280;7622;42.724;23.250;2022-10-28T05:15:11;95934.91;;;8.89;100.00
15050;BME280;7622;42.724;23.250;2022-10-28T05:17:38;95929.72;;;9.15;100.00
15050;BME280;7622;42.724;23.250;2022-10-28T05:20:07;95954.47;;;9.69;100.00
15050;BME280;7622;42.724;23.250;2022-10-28T05:22:35;95963.69;;;10.35;100.00
15050;BME280;7622;42.724;23.250;2022-10-28T05:25:03;95952.34;;;10.95;100.00
15050;BME280;7622;42.724;23.250;2022-10-28T05:27:30;95958.81;;;11.24;100.00
15050;BME280;7622;42.724;23.250;2022-10-28T05:29:57;95941.38;;;11.60;100.00
15050;BME280;7622;42.724;23.250;2022-10-28T05:32:24;95961.00;;;11.97;100.00
15050;BME280;7622;42.724;23.250;2022-10-28T05:34:51;95963.13;;;11.70;100.00
15050;BME280;7622;42.724;23.250;2022-10-28T05:37:18;95965.13;;;11.44;100.00
15050;BME280;7622;42.724;23.250;2022-10-28T05:39:46;95971.38;;;10.84;100.00
15050;BME280;7622;42.724;23.250;2022-10-28T05:42:12;95973.47;;;10.55;100.00
15050;BME280;7622;42.724;23.250;2022-10-28T05:44:39;95918.81;;;10.57;100.00
15050;BME280;7622;42.724;23.250;2022-10-28T05:47:06;95976.69;;;10.94;100.00
15050;BME280;7622;42.724;23.250;2022-10-28T05:49:33;95981.63;;;10.86;100.00
15050;BME280;7622;42.724;23.250;2022-10-28T05:51:59;95979.22;;;10.72;100.00
15050;BME280;7622;42.724;23.250;2022-10-28T05:54:26;95988.13;;;10.56;100.00
15050;BME280;7622;42.724;23.250;2022-10-28T05:56:54;95987.50;;;10.53;100.00
15050;BME280;7622;42.724;23.250;2022-10-28T05:59:21;95976.88;;;10.80;100.00
15050;BME280;7622;42.724;23.250;2022-10-28T06:01:48;95983.66;;;10.93;100.00
15050;BME280;7622;42.724;23.250;2022-10-28T06:04:15;95987.38;;;11.02;100.00
15050;BME280;7622;42.724;23.250;2022-10-28T06:06:41;95991.88;;;10.76;100.00
15050;BME280;7622;42.724;23.250;2022-10-28T06:09:08;95994.09;;;10.70;100.00
15050;BME280;7622;42.724;23.250;2022-10-28T06:11:35;95991.44;;;10.58;100.00
15050;BME280;7622;42.724;23.250;2022-10-28T06:14:03;96002.59;;;10.48;100.00
15050;BME280;7622;42.724;23.250;2022-10-28T06:16:30;96006.38;;;10.68;100.00
15050;BME280;7622;42.724;23.250;2022-10-28T06:18:57;96010.13;;;10.63;100.00
15050;BME280;7622;42.724;23.250;2022-10-28T06:21:23;96005.22;;;10.72;100.00
15050;BME280;7622;42.724;23.250;2022-10-28T06:23:50;96012.34;;;10.81;100.00
15050;BME280;7622;42.724;23.250;2022-10-28T06:26:17;96014.81;;;10.82;100.00
15050;BME280;7622;42.724;23.250;2022-10-28T06:28:46;95999.91;;;11.54;100.00
15050;BME280;7622;42.724;23.250;2022-10-28T06:31:14;96008.09;;;12.28;100.00
15050;BME280;7622;42.724;23.250;2022-10-28T06:33:41;96003.41;;;12.96;100.00
15050;BME280;7622;42.724;23.250;2022-10-28T06:36:08;96011.63;;;13.65;100.00
15050;BME280;7622;42.724;23.250;2022-10-28T06:38:35;96006.84;;;14.01;100.00
15050;BME280;7622;42.724;23.250;2022-10-28T06:41:02;96016.44;;;14.80;100.00
15050;BME280;7622;42.724;23.250;2022-10-28T06:43:28;96006.81;;;15.58;100.00
15050;BME280;7622;42.724;23.250;2022-10-28T06:45:55;96004.41;;;16.30;100.00
15050;BME280;7622;42.724;23.250;2022-10-28T06:48:23;96001.81;;;16.75;100.00
15050;BME280;7622;42.724;23.250;2022-10-28T06:50:54;96012.53;;;16.64;100.00
15050;BME280;7622;42.724;23.250;2022-10-28T06:53:22;96007.78;;;16.13;100.00
15050;BME280;7622;42.724;23.250;2022-10-28T06:55:51;96012.69;;;16.26;100.00
15050;BME280;7622;42.724;23.250;2022-10-28T06:58:18;96006.31;;;16.38;100.00
15050;BME280;7622;42.724;23.250;2022-10-28T07:00:45;96010.75;;;16.82;100.00
15050;BME280;7622;42.724;23.250;2022-10-28T07:03:12;96008.56;;;17.49;100.00
15050;BME280;7622;42.724;23.250;2022-10-28T07:05:40;96012.03;;;17.49;100.00
15050;BME280;7622;42.724;23.250;2022-10-28T07:08:07;96016.50;;;17.75;100.00
15050;BME280;7622;42.724;23.250;2022-10-28T07:10:33;96013.78;;;18.10;100.00
15050;BME280;7622;42.724;23.250;2022-10-28T07:13:00;96019.72;;;18.54;100.00
15050;BME280;7622;42.724;23.250;2022-10-28T07:15:27;96010.94;;;18.37;93.76
15050;BME280;7622;42.724;23.250;2022-10-28T07:17:55;96016.34;;;18.70;100.00
15050;BME280;7622;42.724;23.250;2022-10-28T07:20:23;96015.16;;;19.14;94.14
15050;BME280;7622;42.724;23.250;2022-10-28T07:22:55;96009.06;;;19.14;90.34
15050;BME280;7622;42.724;23.250;2022-10-28T07:25:22;96012.00;;;19.11;98.59
15050;BME280;7622;42.724;23.250;2022-10-28T07:27:49;96013.41;;;18.81;95.85
15050;BME280;7622;42.724;23.250;2022-10-28T07:30:15;96012.78;;;18.87;85.29
15050;BME280;7622;42.724;23.250;2022-10-28T07:32:42;96015.13;;;18.98;100.00
15050;BME280;7622;42.724;23.250;2022-10-28T07:35:09;96006.53;;;18.80;89.54
15050;BME280;7622;42.724;23.250;2022-10-28T07:37:37;96005.03;;;18.77;88.89
15050;BME280;7622;42.724;23.250;2022-10-28T07:40:06;96008.72;;;19.17;85.08
15050;BME280;7622;42.724;23.250;2022-10-28T07:42:33;96009.94;;;19.47;83.84
15050;BME280;7622;42.724;23.250;2022-10-28T07:45:00;96007.41;;;19.94;82.90
15050;BME280;7622;42.724;23.250;2022-10-28T07:47:27;96005.03;;;20.23;73.61
15050;BME280;7622;42.724;23.250;2022-10-28T07:49:54;96001.88;;;20.28;75.43
15050;BME280;7622;42.724;23.250;2022-10-28T07:52:20;96004.84;;;20.80;90.87
15050;BME280;7622;42.724;23.250;2022-10-28T07:54:47;96002.28;;;20.56;88.39
15050;BME280;7622;42.724;23.250;2022-10-28T07:57:15;96000.53;;;20.79;85.56
15050;BME280;7622;42.724;23.250;2022-10-28T07:59:42;95998.78;;;21.25;68.28
15050;BME280;7622;42.724;23.250;2022-10-28T08:02:14;95997.78;;;20.95;68.09
15050;BME280;7622;42.724;23.250;2022-10-28T08:04:42;96007.91;;;20.92;89.69
15050;BME280;7622;42.724;23.250;2022-10-28T08:07:09;96000.13;;;20.67;68.08
15050;BME280;7622;42.724;23.250;2022-10-28T08:09:36;96000.38;;;21.72;70.09
15050;BME280;7622;42.724;23.250;2022-10-28T08:12:03;96005.63;;;21.94;69.02
15050;BME280;7622;42.724;23.250;2022-10-28T08:14:31;95999.69;;;21.78;64.04
15050;BME280;7622;42.724;23.250;2022-10-28T08:16:58;95996.88;;;21.94;64.24
15050;BME280;7622;42.724;23.250;2022-10-28T08:21:51;95998.63;;;21.49;62.34
15050;BME280;7622;42.724;23.250;2022-10-28T08:24:18;95995.19;;;21.78;62.77
15050;BME280;7622;42.724;23.250;2022-10-28T08:26:45;96005.78;;;22.30;67.29
15050;BME280;7622;42.724;23.250;2022-10-28T08:29:12;96004.41;;;22.78;56.91
15050;BME280;7622;42.724;23.250;2022-10-28T08:31:40;95999.31;;;21.81;68.11
15050;BME280;7622;42.724;23.250;2022-10-28T08:34:07;96005.63;;;21.42;66.23
15050;BME280;7622;42.724;23.250;2022-10-28T08:36:34;95996.41;;;21.53;64.18
15050;BME280;7622;42.724;23.250;2022-10-28T08:39:01;95944.19;;;21.09;62.95
15050;BME280;7622;42.724;23.250;2022-10-28T08:41:32;95993.47;;;20.71;62.66
15050;BME280;7622;42.724;23.250;2022-10-28T08:44:34;95996.84;;;19.94;69.26
15050;BME280;7622;42.724;23.250;2022-10-28T08:47:15;95991.69;;;20.17;69.71
15050;BME280;7622;42.724;23.250;2022-10-28T08:49:49;95989.81;;;20.41;69.43
15050;BME280;7622;42.724;23.250;2022-10-28T08:52:25;95986.25;;;20.65;67.68
15050;BME280;7622;42.724;23.250;2022-10-28T08:54:56;95997.72;;;20.80;64.44
15050;BME280;7622;42.724;23.250;2022-10-28T08:57:36;95993.16;;;21.28;64.80
15050;BME280;7622;42.724;23.250;2022-10-28T09:00:06;95997.28;;;21.68;59.25
15050;BME280;7622;42.724;23.250;2022-10-28T09:02:46;95993.47;;;21.71;58.55
15050;BME280;7622;42.724;23.250;2022-10-28T09:05:19;95986.13;;;21.58;62.30
15050;BME280;7622;42.724;23.250;2022-10-28T09:07:46;95985.72;;;21.69;59.26
15050;BME280;7622;42.724;23.250;2022-10-28T09:10:14;95979.59;;;21.69;63.58
15050;BME280;7622;42.724;23.250;2022-10-28T09:12:49;95974.50;;;21.82;58.92
15050;BME280;7622;42.724;23.250;2022-10-28T09:15:30;95979.13;;;22.17;58.18
15050;BME280;7622;42.724;23.250;2022-10-28T09:18:11;95978.72;;;22.79;56.10
15050;BME280;7622;42.724;23.250;2022-10-28T09:20:47;95972.25;;;22.82;55.23
15050;BME280;7622;42.724;23.250;2022-10-28T09:23:21;95975.03;;;22.29;56.54
15050;BME280;7622;42.724;23.250;2022-10-28T09:25:58;95967.06;;;22.29;56.34
15050;BME280;7622;42.724;23.250;2022-10-28T09:28:40;95969.47;;;22.90;54.37
15050;BME280;7622;42.724;23.250;2022-10-28T09:31:17;95963.00;;;22.77;53.02
15050;BME280;7622;42.724;23.250;2022-10-28T09:33:54;95949.88;;;22.55;56.20
15050;BME280;7622;42.724;23.250;2022-10-28T09:36:31;95945.50;;;23.89;54.69
15050;BME280;7622;42.724;23.250;2022-10-28T09:38:59;95940.75;;;24.13;50.96
15050;BME280;7622;42.724;23.250;2022-10-28T09:41:30;95940.97;;;24.59;51.83
15050;BME280;7622;42.724;23.250;2022-10-28T09:44:03;95939.56;;;24.63;47.87
15050;BME280;7622;42.724;23.250;2022-10-28T09:46:32;95940.41;;;24.77;48.67
15050;BME280;7622;42.724;23.250;2022-10-28T09:49:05;95926.44;;;25.16;47.45
15050;BME280;7622;42.724;23.250;2022-10-28T09:51:46;95922.13;;;25.08;46.83
15050;BME280;7622;42.724;23.250;2022-10-28T09:54:13;95927.09;;;24.70;47.31
15050;BME280;7622;42.724;23.250;2022-10-28T09:56:40;95916.38;;;25.04;49.59
15050;BME280;7622;42.724;23.250;2022-10-28T09:59:11;95910.47;;;25.02;50.75
15050;BME280;7622;42.724;23.250;2022-10-28T10:01:41;95912.09;;;25.03;47.33
15050;BME280;7622;42.724;23.250;2022-10-28T10:04:16;95904.53;;;25.53;45.35
15050;BME280;7622;42.724;23.250;2022-10-28T10:06:46;95908.22;;;25.32;46.43
15050;BME280;7622;42.724;23.250;2022-10-28T10:09:19;95904.72;;;24.99;45.75
15050;BME280;7622;42.724;23.250;2022-10-28T10:11:47;95911.31;;;25.29;44.90
15050;BME280;7622;42.724;23.250;2022-10-28T10:14:19;95909.66;;;25.35;44.66
15050;BME280;7622;42.724;23.250;2022-10-28T10:16:51;95900.06;;;25.60;44.51
15050;BME280;7622;42.724;23.250;2022-10-28T10:19:20;95898.81;;;25.89;43.47
15050;BME280;7622;42.724;23.250;2022-10-28T10:21:49;95899.03;;;25.48;44.00
15050;BME280;7622;42.724;23.250;2022-10-28T10:24:24;95890.66;;;25.58;43.60
15050;BME280;7622;42.724;23.250;2022-10-28T10:26:52;95893.09;;;25.33;44.13
15050;BME280;7622;42.724;23.250;2022-10-28T10:29:20;95888.59;;;25.46;42.92
15050;BME280;7622;42.724;23.250;2022-10-28T10:31:48;95880.59;;;25.27;44.92
15050;BME280;7622;42.724;23.250;2022-10-28T10:34:30;95882.44;;;25.39;43.99
15050;BME280;7622;42.724;23.250;2022-10-28T10:36:57;95879.78;;;25.33;45.01
15050;BME280;7622;42.724;23.250;2022-10-28T10:39:29;95879.38;;;25.69;43.83
15050;BME280;7622;42.724;23.250;2022-10-28T10:41:59;95885.91;;;25.46;44.39
15050;BME280;7622;42.724;23.250;2022-10-28T10:44:33;95881.41;;;25.54;42.61
15050;BME280;7622;42.724;23.250;2022-10-28T10:47:16;95881.94;;;26.08;42.75
15050;BME280;7622;42.724;23.250;2022-10-28T10:49:45;95875.22;;;25.99;45.04
15050;BME280;7622;42.724;23.250;2022-10-28T10:52:19;95869.06;;;26.05;44.96
15050;BME280;7622;42.724;23.250;2022-10-28T10:54:57;95863.00;;;25.78;42.39
15050;BME280;7622;42.724;23.250;2022-10-28T10:57:24;95838.81;;;25.73;41.93
15050;BME280;7622;42.724;23.250;2022-10-28T10:59:53;95857.41;;;25.86;40.36
15050;BME280;7622;42.724;23.250;2022-10-28T11:02:23;95860.50;;;25.83;39.91
15050;BME280;7622;42.724;23.250;2022-10-28T11:04:55;95860.88;;;26.00;40.71
15050;BME280;7622;42.724;23.250;2022-10-28T11:07:23;95855.75;;;26.05;41.90
15050;BME280;7622;42.724;23.250;2022-10-28T11:09:53;95804.69;;;26.08;40.70
15050;BME280;7622;42.724;23.250;2022-10-28T11:12:28;95850.44;;;26.50;39.70
15050;BME280;7622;42.724;23.250;2022-10-28T11:14:58;95853.78;;;26.39;38.12
15050;BME280;7622;42.724;23.250;2022-10-28T11:17:27;95847.25;;;25.50;39.60
15050;BME280;7622;42.724;23.250;2022-10-28T11:19:57;95828.03;;;25.22;40.22
15050;BME280;7622;42.724;23.250;2022-10-28T11:22:37;95843.78;;;25.30;39.60
15050;BME280;7622;42.724;23.250;2022-10-28T11:25:35;95833.69;;;25.85;39.11
15050;BME280;7622;42.724;23.250;2022-10-28T11:28:15;95831.91;;;25.26;39.72
15050;BME280;7622;42.724;23.250;2022-10-28T11:30:53;95835.56;;;25.25;40.22
15050;BME280;7622;42.724;23.250;2022-10-28T11:33:30;95833.53;;;25.14;39.53
15050;BME280;7622;42.724;23.250;2022-10-28T11:36:10;95824.72;;;25.46;38.78
15050;BME280;7622;42.724;23.250;2022-10-28T11:41:54;95820.31;;;25.98;38.57
15050;BME280;7622;42.724;23.250;2022-10-28T11:44:35;95827.22;;;25.02;40.40
15050;BME280;7622;42.724;23.250;2022-10-28T11:47:20;95818.91;;;24.44;42.06
15050;BME280;7622;42.724;23.250;2022-10-28T11:50:16;95821.28;;;23.44;42.60
15050;BME280;7622;42.724;23.250;2022-10-28T11:53:08;95815.41;;;22.99;43.39
15050;BME280;7622;42.724;23.250;2022-10-28T11:55:44;95812.88;;;22.70;44.03
15050;BME280;7622;42.724;23.250;2022-10-28T11:58:18;95813.97;;;22.33;44.26
15050;BME280;7622;42.724;23.250;2022-10-28T12:00:59;95792.13;;;22.31;45.67
15050;BME280;7622;42.724;23.250;2022-10-28T12:03:42;95820.81;;;22.27;46.37
15050;BME280;7622;42.724;23.250;2022-10-28T12:06:15;95805.63;;;22.57;46.27
15050;BME280;7622;42.724;23.250;2022-10-28T12:08:58;95789.31;;;22.32;46.15
15050;BME280;7622;42.724;23.250;2022-10-28T12:11:37;95796.91;;;22.21;47.50
15050;BME280;7622;42.724;23.250;2022-10-28T12:14:13;95797.09;;;22.40;47.19
15050;BME280;7622;42.724;23.250;2022-10-28T12:16:46;95798.16;;;22.61;46.59
15050;BME280;7622;42.724;23.250;2022-10-28T12:19:18;95797.13;;;22.62;47.44
15050;BME280;7622;42.724;23.250;2022-10-28T12:21:56;95788.03;;;22.50;46.72
15050;BME280;7622;42.724;23.250;2022-10-28T12:24:25;95800.03;;;22.46;47.48
15050;BME280;7622;42.724;23.250;2022-10-28T12:26:55;95796.78;;;22.29;47.11
15050;BME280;7622;42.724;23.250;2022-10-28T12:29:25;95803.63;;;21.73;48.19
15050;BME280;7622;42.724;23.250;2022-10-28T12:31:57;95799.81;;;21.31;49.77
15050;BME280;7622;42.724;23.250;2022-10-28T12:34:30;95801.38;;;21.40;49.85
15050;BME280;7622;42.724;23.250;2022-10-28T12:37:02;95795.25;;;21.40;49.80
15050;BME280;7622;42.724;23.250;2022-10-28T12:39:36;95784.84;;;21.53;51.04
15050;BME280;7622;42.724;23.250;2022-10-28T12:42:10;95779.66;;;21.59;49.46
15050;BME280;7622;42.724;23.250;2022-10-28T12:44:38;95783.53;;;21.78;48.70
15050;BME280;7622;42.724;23.250;2022-10-28T12:47:16;95783.28;;;21.88;48.45
15050;BME280;7622;42.724;23.250;2022-10-28T12:49:51;95772.28;;;21.70;48.42
15050;BME280;7622;42.724;23.250;2022-10-28T12:52:35;95779.91;;;21.79;48.28
15050;BME280;7622;42.724;23.250;2022-10-28T12:55:15;95766.44;;;21.45;49.20
15050;BME280;7622;42.724;23.250;2022-10-28T12:57:47;95772.47;;;21.53;49.38
15050;BME280;7622;42.724;23.250;2022-10-28T13:00:18;95772.03;;;21.35;48.74
15050;BME280;7622;42.724;23.250;2022-10-28T13:02:50;95767.56;;;21.36;48.73
15050;BME280;7622;42.724;23.250;2022-10-28T13:05:23;95779.88;;;21.43;48.03
15050;BME280;7622;42.724;23.250;2022-10-28T13:08:04;95769.72;;;21.61;47.33
15050;BME280;7622;42.724;23.250;2022-10-28T13:10:40;95762.88;;;21.52;47.31
15050;BME280;7622;42.724;23.250;2022-10-28T13:13:33;95769.25;;;21.14;48.70
15050;BME280;7622;42.724;23.250;2022-10-28T13:16:17;95776.09;;;21.08;49.21
15050;BME280;7622;42.724;23.250;2022-10-28T13:22:07;95763.03;;;21.07;48.43
15050;BME280;7622;42.724;23.250;2022-10-28T13:24:42;95762.66;;;21.10;49.44
15050;BME280;7622;42.724;23.250;2022-10-28T13:27:12;95756.91;;;20.92;50.95
15050;BME280;7622;42.724;23.250;2022-10-28T13:29:41;95750.47;;;20.94;52.98